Time;durP1;ratioP1;P1;durP2;ratioP2;P2;SDS_P1;SDS_P2;PMS_P1;PMS_P2;Temp;Humidity;BMP_temperature;BMP_pressure;BME280_temperature;BME280_humidity;BME280_pressure;Samples;Min_cycle;Max_cycle;Signal;HPM_P1;HPM_P2
2022/05/09 00:00:27;;;;;;;9.43;3.90;;;;;;;10.06;67.07;100938.50;4179089;28;20618;-69
2022/05/09 00:02:54;;;;;;;14.40;3.83;;;;;;;10.00;67.47;100944.34;4185335;28;20482;-68
2022/05/09 00:05:23;;;;;;;11.17;3.97;;;;;;;9.95;67.85;100943.91;4176370;28;21041;-66
2022/05/09 00:07:49;;;;;;;7.43;3.63;;;;;;;9.93;67.95;100956.47;4176083;28;20245;-67
2022/05/09 00:10:19;;;;;;;7.10;3.60;;;;;;;9.97;67.84;100957.03;4178377;28;20300;-66
2022/05/09 00:12:46;;;;;;;8.80;3.47;;;;;;;9.89;68.32;100957.69;4176728;28;20324;-66
2022/05/09 00:15:13;;;;;;;7.47;3.80;;;;;;;9.83;68.62;100956.41;4171908;28;20283;-67
2022/05/09 00:17:40;;;;;;;8.53;3.70;;;;;;;9.84;68.75;100965.22;4177967;28;21946;-67
2022/05/09 00:20:07;;;;;;;6.63;3.63;;;;;;;9.87;68.76;100962.28;4171246;28;20445;-65
2022/05/09 00:22:45;;;;;;;7.47;3.50;;;;;;;9.81;68.71;100968.09;4179371;28;20249;-66
2022/05/09 00:25:12;;;;;;;9.87;4.23;;;;;;;9.69;69.33;100960.19;4172900;28;20232;-64
2022/05/09 00:27:39;;;;;;;11.07;3.70;;;;;;;9.64;69.77;100967.66;4188954;28;20309;-66
2022/05/09 00:30:06;;;;;;;11.17;4.17;;;;;;;9.67;69.47;100977.22;4189886;28;20267;-65
2022/05/09 00:32:33;;;;;;;10.13;3.97;;;;;;;9.75;69.45;100976.59;4176623;28;20247;-66
2022/05/09 00:35:03;;;;;;;9.00;3.40;;;;;;;9.58;70.16;100977.97;4176585;28;20407;-66
2022/05/09 00:37:29;;;;;;;8.10;3.67;;;;;;;9.51;70.17;100985.59;4176202;28;20236;-66
2022/05/09 00:39:56;;;;;;;8.87;3.87;;;;;;;9.46;70.17;100985.13;4192490;28;20240;-69
2022/05/09 00:42:23;;;;;;;6.13;3.53;;;;;;;9.39;70.83;100983.91;4360558;23;22335;-61
2022/05/09 00:44:49;;;;;;;11.23;3.70;;;;;;;9.34;70.77;100986.09;4956545;28;20231;-61
2022/05/09 00:47:16;;;;;;;10.13;3.47;;;;;;;9.34;70.53;100991.41;4980003;28;20219;-62
2022/05/09 00:49:48;;;;;;;10.97;3.90;;;;;;;9.37;70.54;100996.50;4984651;28;20952;-63
2022/05/09 00:52:25;;;;;;;6.93;3.70;;;;;;;9.34;70.79;101002.91;4985134;28;20317;-62
2022/05/09 00:55:03;;;;;;;6.80;3.47;;;;;;;9.24;71.73;100997.47;4967191;28;20298;-63
2022/05/09 00:57:35;;;;;;;8.23;3.70;;;;;;;9.16;72.14;100999.91;4991976;23;20255;-68
2022/05/09 01:00:11;;;;;;;8.47;3.60;;;;;;;9.14;72.35;100999.19;4989931;28;20315;-68
2022/05/09 01:02:39;;;;;;;8.97;4.40;;;;;;;9.07;72.79;101005.94;4992408;28;20273;-68
2022/05/09 01:05:07;;;;;;;11.80;3.67;;;;;;;9.13;72.48;101009.91;4986954;28;20222;-68
2022/05/09 01:07:33;;;;;;;11.53;3.83;;;;;;;9.03;73.61;101004.47;5006678;28;20307;-69
2022/05/09 01:10:00;;;;;;;6.30;3.83;;;;;;;9.04;72.64;101009.69;5006396;28;20716;-68
2022/05/09 01:12:30;;;;;;;6.60;3.70;;;;;;;9.02;72.94;101008.97;4777232;28;20281;-66
2022/05/09 01:15:04;;;;;;;6.83;3.27;;;;;;;8.94;73.08;101018.47;4194153;28;20299;-68
2022/05/09 01:17:31;;;;;;;7.57;4.00;;;;;;;8.96;72.91;101014.72;4184474;28;20235;-67
2022/05/09 01:19:59;;;;;;;10.87;3.53;;;;;;;8.88;73.22;101012.69;4197605;28;22884;-66
2022/05/09 01:22:31;;;;;;;7.43;3.80;;;;;;;8.76;73.43;101008.34;4192987;28;20564;-67
2022/05/09 01:25:02;;;;;;;9.57;3.90;;;;;;;8.68;73.89;101017.84;4202424;28;20995;-67
2022/05/09 01:27:30;;;;;;;9.67;4.10;;;;;;;8.68;74.08;101016.03;4192147;28;21265;-67
2022/05/09 01:29:59;;;;;;;8.43;3.60;;;;;;;8.53;74.26;101012.78;4191021;28;20256;-68
2022/05/09 01:32:36;;;;;;;9.00;3.67;;;;;;;8.50;74.21;101006.84;4204323;28;20397;-67
2022/05/09 01:35:28;;;;;;;8.23;3.70;;;;;;;8.59;73.43;101017.63;4190623;28;20546;-68
2022/05/09 01:38:17;;;;;;;9.23;4.17;;;;;;;8.40;74.70;101012.84;4211611;28;25851;-68
2022/05/09 01:40:43;;;;;;;8.37;3.83;;;;;;;8.46;73.83;101011.53;4214915;28;20250;-68
2022/05/09 01:43:10;;;;;;;7.33;3.30;;;;;;;8.47;73.37;101023.00;4208026;28;20252;-67
2022/05/09 01:45:36;;;;;;;8.50;3.57;;;;;;;8.43;73.79;101020.59;4207175;28;20326;-68
2022/05/09 01:50:48;;;;;;;6.27;3.40;;;;;;;8.34;73.85;101029.22;4197752;28;21233;-68
2022/05/09 01:53:15;;;;;;;8.03;3.20;;;;;;;8.34;73.44;101033.66;4223730;28;20671;-66
2022/05/09 01:55:41;;;;;;;6.73;3.00;;;;;;;8.19;74.09;101025.03;4206185;28;20239;-68
2022/05/09 01:58:08;;;;;;;10.10;3.70;;;;;;;8.21;73.27;101023.13;4186904;28;21198;-67
2022/05/09 02:00:34;;;;;;;5.60;3.33;;;;;;;8.27;73.26;101025.31;4187315;28;20243;-67
2022/05/09 02:03:01;;;;;;;6.47;3.67;;;;;;;8.13;73.38;101030.81;4186845;28;20278;-67
2022/05/09 02:05:28;;;;;;;7.70;3.50;;;;;;;8.00;73.56;101037.00;4189993;28;20313;-67
2022/05/09 02:07:54;;;;;;;7.43;3.17;;;;;;;8.06;73.32;101030.44;4184902;28;20234;-67
2022/05/09 02:10:21;;;;;;;5.97;3.37;;;;;;;8.04;72.58;101032.34;4182289;28;21640;-67
2022/05/09 02:12:47;;;;;;;8.80;3.20;;;;;;;7.89;73.12;101039.63;4188965;28;22088;-67
2022/05/09 02:15:14;;;;;;;6.00;3.23;;;;;;;7.92;73.26;101035.91;4191339;28;21157;-67
2022/05/09 02:17:41;;;;;;;8.67;3.80;;;;;;;8.00;72.97;101041.47;4178799;28;22561;-68
2022/05/09 02:20:08;;;;;;;8.93;3.30;;;;;;;7.91;72.72;101043.00;4188746;28;25340;-67
2022/05/09 02:22:34;;;;;;;9.50;3.07;;;;;;;7.86;72.67;101041.66;4189012;28;20263;-68
2022/05/09 02:25:26;;;;;;;5.33;3.03;;;;;;;7.89;72.10;101050.22;4187853;28;20233;-68
2022/05/09 02:27:47;;;;;;;4.70;2.70;;;;;;;7.77;73.18;101051.09;4195686;28;20298;-67
2022/05/09 02:30:14;;;;;;;6.87;3.60;;;;;;;7.77;72.88;101057.28;4187046;28;20301;-68
2022/05/09 02:32:41;;;;;;;8.60;3.23;;;;;;;7.71;72.28;101052.41;4184374;28;22768;-67
2022/05/09 02:35:07;;;;;;;6.90;2.80;;;;;;;7.69;72.55;101056.13;4187409;28;20279;-67
2022/05/09 02:37:34;;;;;;;8.87;3.37;;;;;;;7.66;72.81;101059.00;4199446;28;20245;-68
2022/05/09 02:40:00;;;;;;;6.43;3.10;;;;;;;7.65;72.13;101062.59;4193295;28;20916;-67
2022/05/09 02:42:27;;;;;;;11.53;3.70;;;;;;;7.58;72.41;101062.19;4166564;28;20662;-67
2022/05/09 02:44:54;;;;;;;6.53;2.97;;;;;;;7.57;72.07;101066.66;4177839;28;22046;-67
2022/05/09 02:47:21;;;;;;;5.73;2.70;;;;;;;7.61;71.67;101062.81;4186929;28;22939;-69
2022/05/09 02:49:47;;;;;;;6.50;3.30;;;;;;;7.48;72.09;101067.31;4187977;28;23139;-68
2022/05/09 02:52:14;;;;;;;5.87;3.00;;;;;;;7.50;71.74;101069.84;4190275;28;20237;-67
2022/05/09 02:54:40;;;;;;;10.10;3.20;;;;;;;7.48;72.54;101072.59;4180353;28;20993;-69
2022/05/09 02:57:07;;;;;;;4.80;2.73;;;;;;;7.48;71.43;101077.06;4185896;28;20305;-68
2022/05/09 02:59:34;;;;;;;8.43;3.10;;;;;;;7.45;71.40;101078.13;4173898;28;20242;-69
2022/05/09 03:02:01;;;;;;;5.20;2.90;;;;;;;7.40;72.07;101082.91;4164853;28;20343;-69
2022/05/09 03:04:41;;;;;;;6.70;2.93;;;;;;;7.39;72.47;101083.84;4180010;28;20513;-67
2022/05/09 03:07:11;;;;;;;8.07;3.10;;;;;;;7.39;71.72;101084.69;4200431;28;20277;-67
2022/05/09 03:09:40;;;;;;;4.23;2.93;;;;;;;7.40;71.25;101091.69;4663746;23;20228;-63
2022/05/09 03:12:09;;;;;;;6.67;2.70;;;;;;;7.36;71.14;101089.38;4946639;28;20223;-61
2022/05/09 03:14:36;;;;;;;5.83;2.90;;;;;;;7.44;70.33;101091.47;4966391;28;20346;-61
2022/05/09 03:17:03;;;;;;;9.53;3.17;;;;;;;7.27;71.07;101085.56;4968104;28;20986;-62
2022/05/09 03:19:30;;;;;;;9.90;2.97;;;;;;;7.28;71.08;101091.69;4953424;28;20705;-61
2022/05/09 03:21:57;;;;;;;8.90;2.53;;;;;;;7.30;70.54;101087.97;4974093;28;20249;-61
2022/05/09 03:24:26;;;;;;;6.30;2.53;;;;;;;7.29;71.02;101093.41;4976023;28;20242;-62
2022/05/09 03:26:53;;;;;;;8.10;3.23;;;;;;;7.27;71.14;101101.44;4952045;28;20682;-62
2022/05/09 03:29:20;;;;;;;6.53;3.10;;;;;;;7.26;70.71;101098.88;4957259;28;20234;-61
2022/05/09 03:31:47;;;;;;;5.77;2.80;;;;;;;7.28;70.23;101103.16;4955169;28;20231;-61
2022/05/09 03:34:14;;;;;;;5.37;2.40;;;;;;;7.36;69.33;101108.72;4973225;28;20408;-62
2022/05/09 03:36:41;;;;;;;7.17;2.67;;;;;;;7.33;68.83;101106.31;4971988;28;21069;-63
2022/05/09 03:39:08;;;;;;;10.60;2.87;;;;;;;7.30;68.78;101110.97;4973272;28;20666;-62
2022/05/09 03:41:35;;;;;;;4.30;2.43;;;;;;;7.38;68.46;101114.78;4972533;28;20247;-59
2022/05/09 03:44:02;;;;;;;4.20;2.63;;;;;;;7.37;69.10;101122.81;4965102;28;20228;-61
2022/05/09 03:46:36;;;;;;;6.43;2.60;;;;;;;7.41;68.35;101126.94;4971749;28;20227;-62
2022/05/09 03:49:04;;;;;;;6.90;2.30;;;;;;;7.44;67.94;101129.38;4972557;28;20231;-62
2022/05/09 03:51:31;;;;;;;5.80;2.53;;;;;;;7.43;67.69;101137.44;4956056;28;20219;-61
2022/05/09 03:53:57;;;;;;;5.43;2.60;;;;;;;7.53;66.72;101141.97;4972733;28;20216;-60
2022/05/09 03:56:24;;;;;;;5.77;2.43;;;;;;;7.50;67.25;101141.34;4957586;28;20711;-60
2022/05/09 03:58:50;;;;;;;8.70;2.50;;;;;;;7.49;66.83;101135.22;4992392;28;20790;-61
2022/05/09 04:01:17;;;;;;;7.70;2.57;;;;;;;7.57;66.48;101147.91;4990672;28;20314;-63
2022/05/09 04:03:44;;;;;;;5.57;2.50;;;;;;;7.65;66.46;101147.38;4990354;28;20251;-63
2022/05/09 04:06:10;;;;;;;3.70;2.23;;;;;;;7.66;66.08;101149.91;4992225;28;20310;-60
2022/05/09 04:08:37;;;;;;;4.30;2.57;;;;;;;7.63;65.61;101146.63;4990940;28;20289;-61
2022/05/09 04:11:03;;;;;;;9.43;2.47;;;;;;;7.68;65.11;101155.09;4955412;28;20231;-62
2022/05/09 04:13:30;;;;;;;8.63;2.30;;;;;;;7.66;65.16;101149.06;4991553;28;20377;-62
2022/05/09 04:18:43;;;;;;;8.33;2.53;;;;;;;7.67;64.91;101156.91;4975901;28;20230;-61
2022/05/09 04:21:11;;;;;;;3.63;2.20;;;;;;;7.69;65.18;101159.44;4973652;28;20351;-62
2022/05/09 04:23:38;;;;;;;5.83;2.33;;;;;;;7.72;64.36;101161.88;4974785;28;20235;-61
2022/05/09 04:26:05;;;;;;;7.43;2.33;;;;;;;7.79;64.18;101156.00;4993555;28;20643;-60
2022/05/09 04:28:32;;;;;;;10.17;2.67;;;;;;;7.73;64.14;101159.13;4968039;28;20837;-61
2022/05/09 04:30:59;;;;;;;6.27;2.47;;;;;;;7.82;63.73;101161.13;4989547;28;20222;-61
2022/05/09 04:33:28;;;;;;;3.87;1.97;;;;;;;7.91;63.23;101167.53;4992773;28;20852;-61
2022/05/09 04:35:58;;;;;;;10.10;2.30;;;;;;;7.87;63.51;101168.75;4991226;28;20250;-62
2022/05/09 04:38:26;;;;;;;5.90;2.40;;;;;;;7.92;63.27;101169.25;4989880;28;20256;-59
2022/05/09 04:40:54;;;;;;;6.97;2.20;;;;;;;7.93;63.04;101176.22;4992160;28;20261;-62
2022/05/09 04:43:26;;;;;;;9.23;2.00;;;;;;;7.96;62.75;101177.81;4990392;28;20233;-62
2022/05/09 04:45:53;;;;;;;9.33;2.53;;;;;;;8.00;61.63;101177.47;4973962;28;20793;-61
2022/05/09 04:48:20;;;;;;;7.20;2.47;;;;;;;8.11;61.46;101182.03;4978861;28;20366;-61
2022/05/09 04:50:48;;;;;;;9.27;2.50;;;;;;;8.11;61.06;101181.19;4991097;28;20252;-58
2022/05/09 04:53:16;;;;;;;10.17;3.57;;;;;;;8.22;61.20;101179.44;4990017;28;20242;-61
2022/05/09 04:55:43;;;;;;;7.73;2.07;;;;;;;8.32;60.19;101187.56;4989267;28;20322;-60
2022/05/09 04:58:12;;;;;;;6.57;2.20;;;;;;;8.48;59.54;101184.69;4990553;28;20314;-58
2022/05/09 05:00:39;;;;;;;7.10;2.27;;;;;;;8.55;59.21;101188.59;4974049;28;20230;-61
2022/05/09 05:03:05;;;;;;;10.60;2.40;;;;;;;8.59;58.86;101186.53;4991146;28;20755;-62
2022/05/09 05:05:33;;;;;;;8.27;2.20;;;;;;;8.57;58.37;101188.44;4992129;28;20625;-62
2022/05/09 05:08:00;;;;;;;9.37;2.00;;;;;;;8.68;57.56;101191.16;4989157;28;20767;-61
2022/05/09 05:10:28;;;;;;;13.50;2.27;;;;;;;8.77;57.50;101195.78;4991367;28;20508;-61
2022/05/09 05:12:56;;;;;;;8.10;2.20;;;;;;;8.94;57.10;101201.63;4987369;28;20234;-61
2022/05/09 05:15:23;;;;;;;5.83;2.30;;;;;;;9.06;55.96;101203.34;4989590;28;20245;-60
2022/05/09 05:17:49;;;;;;;6.73;2.60;;;;;;;9.19;56.24;101197.97;4990823;28;20773;-62
2022/05/09 05:20:16;;;;;;;6.60;2.37;;;;;;;9.20;55.59;101207.63;4983814;28;20590;-61
2022/05/09 05:22:47;;;;;;;4.90;1.90;;;;;;;9.35;55.35;101206.44;4988576;28;20897;-62
2022/05/09 05:25:16;;;;;;;5.23;1.93;;;;;;;9.48;54.37;101207.22;4992131;28;20223;-61
2022/05/09 05:27:43;;;;;;;8.50;1.80;;;;;;;9.59;53.12;101209.00;4989950;28;20227;-57
2022/05/09 05:30:10;;;;;;;3.33;1.80;;;;;;;9.75;52.88;101221.13;4988768;28;20869;-62
2022/05/09 05:32:39;;;;;;;4.77;1.67;;;;;;;9.85;52.45;101224.72;4973790;28;20227;-62
2022/05/09 05:35:25;;;;;;;3.87;1.87;;;;;;;9.90;51.98;101222.56;4973273;28;20233;-61
2022/05/09 05:37:52;;;;;;;6.17;1.90;;;;;;;9.99;51.09;101220.97;4990750;28;20326;-62
2022/05/09 05:40:19;;;;;;;5.07;1.80;;;;;;;10.07;51.05;101230.06;4988842;28;20234;-60
2022/05/09 05:42:47;;;;;;;11.80;1.90;;;;;;;10.29;49.57;101239.00;4986320;28;20230;-61
2022/05/09 05:45:17;;;;;;;5.27;1.90;;;;;;;10.54;48.99;101244.03;4953604;28;20250;-60
2022/05/09 05:47:43;;;;;;;4.33;1.50;;;;;;;11.05;47.56;101239.88;4987341;28;20508;-61
2022/05/09 05:50:12;;;;;;;7.27;2.43;;;;;;;11.90;44.42;101252.19;4988620;28;20281;-58
2022/05/09 05:52:40;;;;;;;5.90;1.50;;;;;;;12.59;42.66;101262.09;4981042;28;20775;-60
2022/05/09 05:55:07;;;;;;;4.80;1.53;;;;;;;13.28;40.24;101265.69;4980221;28;20789;-62
2022/05/09 05:57:38;;;;;;;4.50;1.70;;;;;;;14.08;39.00;101274.22;4984044;28;20793;-61
2022/05/09 06:00:15;;;;;;;6.07;1.83;;;;;;;14.87;37.17;101278.19;4971643;28;20289;-62
2022/05/09 06:02:42;;;;;;;10.37;1.83;;;;;;;15.35;36.23;101282.28;4989206;28;20898;-60
2022/05/09 06:05:10;;;;;;;5.47;1.40;;;;;;;15.59;34.96;101286.97;4967989;28;20309;-62
2022/05/09 06:07:37;;;;;;;4.00;1.23;;;;;;;15.90;34.28;101287.41;4956936;28;20934;-60
2022/05/09 06:10:05;;;;;;;9.90;1.50;;;;;;;16.04;33.62;101289.50;4988857;28;20650;-61
2022/05/09 06:12:33;;;;;;;5.27;1.50;;;;;;;16.28;33.26;101292.47;4957898;28;20254;-63
2022/05/09 06:17:45;;;;;;;4.63;1.20;;;;;;;17.47;30.65;101301.13;4974013;28;20285;-62
2022/05/09 06:20:12;;;;;;;6.17;1.40;;;;;;;17.80;30.29;101309.16;4949883;28;20230;-61
2022/05/09 06:22:42;;;;;;;4.03;1.57;;;;;;;18.28;29.14;101309.22;4971913;28;20313;-61
2022/05/09 06:25:12;;;;;;;8.60;1.60;;;;;;;18.49;29.15;101319.41;4975744;28;20896;-62
2022/05/09 06:27:39;;;;;;;4.33;1.67;;;;;;;18.61;28.65;101314.47;4984890;28;22554;-63
2022/05/09 06:30:08;;;;;;;6.87;1.47;;;;;;;18.05;29.11;101323.44;4988051;28;20230;-64
2022/05/09 06:32:36;;;;;;;5.70;1.37;;;;;;;17.62;30.02;101312.03;4970166;28;20288;-63
2022/05/09 06:35:08;;;;;;;8.33;1.43;;;;;;;18.25;29.52;101318.50;4964156;28;21012;-67
2022/05/09 06:37:36;;;;;;;5.67;1.20;;;;;;;19.20;27.44;101322.91;4978751;28;21906;-76
2022/05/09 06:40:05;;;;;;;4.93;1.60;;;;;;;19.74;26.95;101328.22;4983068;28;20325;-73
2022/05/09 06:42:33;;;;;;;5.00;1.67;;;;;;;20.50;25.65;101330.75;4989157;28;20308;-71
2022/05/09 06:44:59;;;;;;;6.73;1.50;;;;;;;20.21;25.31;101335.16;4949370;28;20990;-68
2022/05/09 06:47:27;;;;;;;8.67;1.70;;;;;;;20.31;25.13;101336.75;4948616;28;20223;-68
2022/05/09 06:49:58;;;;;;;3.20;1.10;;;;;;;20.16;25.35;101334.88;4971253;28;20234;-65
2022/05/09 06:52:25;;;;;;;9.33;1.80;;;;;;;20.83;25.11;101343.88;4971631;28;20245;-62
2022/05/09 06:54:52;;;;;;;2.67;1.37;;;;;;;20.84;24.55;101345.56;4992764;28;20245;-63
2022/05/09 06:57:19;;;;;;;4.90;1.20;;;;;;;21.28;24.02;101352.69;4989761;28;20230;-62
2022/05/09 06:59:47;;;;;;;5.10;1.30;;;;;;;21.26;23.66;101352.06;4989183;28;20258;-62
2022/05/09 07:02:14;;;;;;;5.00;1.40;;;;;;;22.52;23.14;101360.34;4974182;28;23067;-61
2022/05/09 07:04:41;;;;;;;3.37;1.37;;;;;;;23.36;21.33;101367.31;4990669;28;20611;-62
2022/05/09 07:07:08;;;;;;;5.77;1.50;;;;;;;23.14;21.74;101356.63;4972402;28;20227;-65
2022/05/09 07:09:35;;;;;;;5.03;1.60;;;;;;;23.14;21.41;101362.06;4990933;28;20313;-64
2022/05/09 07:12:02;;;;;;;7.90;2.17;;;;;;;21.52;22.91;101358.78;4958956;28;20306;-65
2022/05/09 07:14:29;;;;;;;7.00;1.63;;;;;;;21.82;23.50;101360.31;4988807;28;20349;-60
2022/05/09 07:16:58;;;;;;;5.70;1.40;;;;;;;22.91;21.44;101356.13;4969423;28;21187;-61
2022/05/09 07:19:25;;;;;;;7.20;1.57;;;;;;;22.00;22.81;101358.97;4990753;28;20222;-59
2022/05/09 07:21:52;;;;;;;6.57;1.97;;;;;;;22.11;23.04;101366.53;4995171;28;20670;-61
2022/05/09 07:24:18;;;;;;;3.20;1.30;;;;;;;23.25;21.98;101367.91;4977201;28;20223;-64
2022/05/09 07:26:45;;;;;;;2.87;1.40;;;;;;;23.75;20.27;101368.44;4970230;28;20236;-62
2022/05/09 07:29:12;;;;;;;6.60;1.53;;;;;;;22.27;21.65;101370.84;4987906;28;20683;-59
2022/05/09 07:31:39;;;;;;;7.77;1.60;;;;;;;20.49;24.04;101345.31;4989763;28;20285;-62
2022/05/09 07:34:06;;;;;;;4.73;1.73;;;;;;;20.71;24.47;101353.53;4972071;28;20288;-61
2022/05/09 07:36:33;;;;;;;7.70;1.53;;;;;;;19.65;25.36;101348.19;4974155;28;20321;-61
2022/05/09 07:39:00;;;;;;;8.40;1.63;;;;;;;19.37;26.17;101351.44;4989688;28;20312;-60
2022/05/09 07:41:27;;;;;;;3.97;1.00;;;;;;;18.92;25.68;101336.94;4991203;28;21338;-61
2022/05/09 07:43:54;;;;;;;8.53;1.70;;;;;;;18.37;26.91;101340.50;4971540;28;20219;-60
2022/05/09 07:46:23;;;;;;;5.33;1.17;;;;;;;18.01;27.75;101340.97;4989592;28;20223;-61
2022/05/09 07:49:10;;;;;;;7.43;1.50;;;;;;;17.48;27.88;101336.94;4987547;28;20227;-60
2022/05/09 07:51:37;;;;;;;7.03;1.43;;;;;;;17.62;27.82;101333.56;4989970;28;20219;-63
2022/05/09 07:54:05;;;;;;;3.20;1.23;;;;;;;17.37;27.71;101329.19;4988943;28;20234;-62
2022/05/09 07:56:40;;;;;;;6.80;1.40;;;;;;;17.61;27.82;101334.59;4973158;28;20874;-63
2022/05/09 07:59:07;;;;;;;8.60;1.47;;;;;;;17.15;29.24;101331.53;4988267;28;20233;-62
2022/05/09 08:01:34;;;;;;;4.60;1.23;;;;;;;17.50;28.65;101332.22;4989213;28;20226;-63
2022/05/09 08:04:04;;;;;;;6.43;1.40;;;;;;;17.93;28.07;101330.19;4983613;28;20222;-63
2022/05/09 08:06:31;;;;;;;8.10;1.50;;;;;;;17.95;26.80;101333.56;4982648;28;20234;-62
2022/05/09 08:08:58;;;;;;;8.33;1.43;;;;;;;17.87;27.08;101333.59;4984201;28;20301;-63
2022/05/09 08:11:25;;;;;;;9.87;1.77;;;;;;;17.70;27.08;101325.50;4978396;28;20230;-62
2022/05/09 08:13:59;;;;;;;4.67;1.13;;;;;;;17.97;27.10;101330.69;4993065;28;21048;-62
2022/05/09 08:16:30;;;;;;;4.67;1.30;;;;;;;18.31;27.22;101328.59;4970411;28;20770;-62
2022/05/09 08:19:02;;;;;;;6.17;1.47;;;;;;;18.10;26.39;101334.53;4971622;28;20262;-60
2022/05/09 08:21:29;;;;;;;6.27;1.07;;;;;;;17.96;26.27;101334.38;4973322;28;20219;-64
2022/05/09 08:24:00;;;;;;;3.17;0.90;;;;;;;17.36;27.29;101330.22;4988272;28;20311;-62
2022/05/09 08:26:29;;;;;;;9.47;1.50;;;;;;;17.11;27.45;101330.16;4990785;28;20916;-63
2022/05/09 08:28:59;;;;;;;6.10;1.50;;;;;;;16.82;28.28;101320.72;4975287;28;20313;-62
2022/05/09 08:31:26;;;;;;;6.90;1.37;;;;;;;17.02;27.75;101320.41;4973304;28;20384;-67
2022/05/09 08:33:56;;;;;;;5.63;1.20;;;;;;;16.75;27.86;101322.34;4975375;28;20246;-62
2022/05/09 08:39:09;;;;;;;4.47;0.90;;;;;;;17.08;27.62;101325.13;4989475;28;20233;-62
2022/05/09 08:41:54;;;;;;;4.30;0.90;;;;;;;17.15;27.80;101328.00;4990365;28;20807;-63
2022/05/09 08:44:47;;;;;;;7.80;1.00;;;;;;;17.35;26.78;101325.81;4965681;28;20227;-62
2022/05/09 08:47:25;;;;;;;4.37;1.50;;;;;;;17.13;27.35;101325.47;4983116;28;20648;-63
2022/05/09 08:49:58;;;;;;;3.30;1.30;;;;;;;16.67;26.98;101322.34;4988366;28;20948;-63
2022/05/09 08:52:37;;;;;;;3.20;1.03;;;;;;;16.72;27.83;101325.38;4983049;28;20600;-63
2022/05/09 08:55:05;;;;;;;3.03;1.33;;;;;;;16.85;28.05;101319.53;4989257;28;20226;-62
2022/05/09 08:57:57;;;;;;;4.43;1.23;;;;;;;16.84;27.96;101324.06;4972224;28;20835;-62
2022/05/09 09:00:29;;;;;;;8.10;1.13;;;;;;;16.72;28.55;101319.16;4970118;28;20226;-63
2022/05/09 09:03:12;;;;;;;8.87;1.10;;;;;;;16.74;28.31;101317.13;4989843;28;22686;-62
2022/05/09 09:05:41;;;;;;;6.23;1.50;;;;;;;16.99;28.61;101318.06;4972406;28;20262;-63
2022/05/09 09:08:20;;;;;;;5.93;1.10;;;;;;;16.77;28.07;101314.13;4967098;28;20230;-64
2022/05/09 09:11:12;;;;;;;11.43;1.23;;;;;;;16.80;27.56;101321.88;4988343;28;21004;-61
2022/05/09 09:13:57;;;;;;;3.87;1.43;;;;;;;16.17;27.87;101317.75;4991875;28;20226;-61
2022/05/09 09:16:55;;;;;;;6.17;1.23;;;;;;;15.90;27.73;101324.97;4973444;28;20441;-63
2022/05/09 09:19:52;;;;;;;5.97;0.87;;;;;;;15.77;27.96;101320.00;4988887;28;20238;-61
2022/05/09 09:22:50;;;;;;;5.40;1.10;;;;;;;16.14;28.08;101320.75;4967131;28;21084;-63
2022/05/09 09:25:32;;;;;;;4.93;1.10;;;;;;;16.10;27.47;101314.00;4989863;28;20984;-62
2022/05/09 09:28:27;;;;;;;2.23;0.90;;;;;;;15.96;27.30;101324.31;4965866;28;20230;-63
2022/05/09 09:30:54;;;;;;;4.60;0.90;;;;;;;15.76;27.95;101322.88;4972566;28;20978;-63
2022/05/09 09:33:21;;;;;;;10.03;1.70;;;;;;;15.69;27.58;101322.63;4965225;28;20961;-63
2022/05/09 09:36:10;;;;;;;3.17;0.83;;;;;;;15.84;27.74;101322.91;4973813;28;20237;-62
2022/05/09 09:38:43;;;;;;;2.83;1.00;;;;;;;16.11;27.58;101319.22;4980594;28;20227;-64
2022/05/09 09:41:15;;;;;;;5.50;1.00;;;;;;;16.31;27.42;101317.13;4990002;28;20237;-63
2022/05/09 09:43:42;;;;;;;5.80;1.00;;;;;;;16.31;27.30;101322.50;4993708;28;22575;-62
2022/05/09 09:46:09;;;;;;;3.20;1.10;;;;;;;16.27;27.28;101321.13;4969516;28;20231;-64
2022/05/09 09:48:36;;;;;;;9.83;0.90;;;;;;;16.29;26.59;101321.81;4972369;28;20271;-62
2022/05/09 09:51:10;;;;;;;3.27;1.13;;;;;;;16.56;27.27;101314.56;4967535;28;20243;-62
2022/05/09 09:53:40;;;;;;;6.73;1.10;;;;;;;16.54;28.21;101316.56;4989523;28;20231;-62
2022/05/09 09:56:21;;;;;;;10.93;1.37;;;;;;;16.44;27.16;101312.16;4989379;28;20269;-63
2022/05/09 09:58:59;;;;;;;4.50;1.20;;;;;;;16.44;26.96;101312.16;4994336;28;20306;-62
2022/05/09 10:01:30;;;;;;;4.20;1.03;;;;;;;16.70;26.87;101311.25;4976163;28;20249;-62
2022/05/09 10:04:03;;;;;;;2.63;1.13;;;;;;;16.29;26.24;101305.69;4971445;28;20281;-61
2022/05/09 10:06:30;;;;;;;5.17;1.30;;;;;;;16.23;26.92;101309.06;4988038;28;20258;-62
2022/05/09 10:09:03;;;;;;;8.60;1.40;;;;;;;16.43;26.56;101313.16;4991684;28;20235;-64
2022/05/09 10:11:31;;;;;;;4.43;1.20;;;;;;;16.66;26.59;101309.88;4990906;28;20937;-62
2022/05/09 10:14:00;;;;;;;5.27;1.10;;;;;;;16.55;26.00;101304.81;4989246;28;20274;-63
2022/05/09 10:16:33;;;;;;;2.50;0.97;;;;;;;16.77;26.54;101309.59;4970618;28;21059;-64
2022/05/09 10:19:02;;;;;;;5.90;1.00;;;;;;;16.84;27.61;101305.25;4992683;28;20225;-60
2022/05/09 10:24:47;;;;;;;5.23;1.10;;;;;;;16.48;27.12;101306.47;4973662;28;20230;-61
2022/05/09 10:27:28;;;;;;;4.73;0.93;;;;;;;16.28;25.38;101300.50;4953854;28;20285;-60
2022/05/09 10:30:07;;;;;;;9.57;1.23;;;;;;;16.21;26.46;101303.00;4995921;28;20223;-61
2022/05/09 10:32:42;;;;;;;4.60;1.10;;;;;;;16.23;26.19;101296.47;4997762;28;20261;-60
2022/05/09 10:35:19;;;;;;;6.80;1.00;;;;;;;16.59;26.55;101298.09;4994746;28;20256;-72
2022/05/09 10:37:53;;;;;;;6.77;0.90;;;;;;;16.62;25.01;101298.63;4998687;28;20951;-62
2022/05/09 10:40:22;;;;;;;2.70;1.10;;;;;;;16.85;26.91;101292.66;4992655;28;20233;-61
2022/05/09 10:43:03;;;;;;;6.87;1.03;;;;;;;16.74;25.46;101301.84;4998476;28;20250;-61
2022/05/09 10:45:34;;;;;;;5.20;1.03;;;;;;;16.72;26.27;101297.66;4996545;28;20768;-63
2022/05/09 10:48:09;;;;;;;4.17;1.10;;;;;;;16.48;25.58;101295.72;4992478;28;20288;-61
2022/05/09 10:50:54;;;;;;;2.70;1.20;;;;;;;16.46;25.26;101291.34;4975940;28;20602;-63
2022/05/09 10:53:32;;;;;;;9.73;1.20;;;;;;;16.56;26.22;101282.31;4974086;28;20234;-60
2022/05/09 10:56:06;;;;;;;2.47;0.90;;;;;;;16.53;24.60;101283.50;4991667;28;20230;-61
2022/05/09 10:58:54;;;;;;;1.67;0.90;;;;;;;16.68;25.87;101281.00;4988691;28;20236;-62
2022/05/09 11:01:27;;;;;;;3.70;0.90;;;;;;;16.63;25.67;101289.56;4975648;28;20236;-63
2022/05/09 11:03:58;;;;;;;8.53;1.30;;;;;;;16.60;25.35;101273.75;4983813;28;20226;-63
2022/05/09 11:06:40;;;;;;;3.87;1.20;;;;;;;16.52;25.60;101276.41;4993218;28;20765;-60
2022/05/09 11:09:37;;;;;;;3.20;1.00;;;;;;;16.74;26.40;101264.22;4994443;28;20305;-68
2022/05/09 11:12:13;;;;;;;5.83;1.07;;;;;;;16.78;26.71;101270.94;4976554;28;20288;-63
2022/05/09 11:15:14;;;;;;;4.63;1.47;;;;;;;16.95;26.18;101265.59;4950996;28;20438;-61
2022/05/09 11:18:16;;;;;;;4.13;0.93;;;;;;;16.99;26.19;101266.97;4959559;28;20231;-61
2022/05/09 11:20:52;;;;;;;4.37;1.13;;;;;;;17.20;25.85;101261.94;4989253;28;20885;-61
2022/05/09 11:23:37;;;;;;;9.73;1.17;;;;;;;17.32;25.86;101261.59;4990401;28;20699;-62
2022/05/09 11:26:21;;;;;;;6.17;1.10;;;;;;;17.28;25.97;101271.88;4987973;28;20888;-62
2022/05/09 11:29:25;;;;;;;3.57;1.13;;;;;;;17.10;24.93;101258.56;4976676;28;20212;-63
2022/05/09 11:32:13;;;;;;;3.90;0.93;;;;;;;17.18;24.99;101265.81;4993551;28;20230;-62
2022/05/09 11:35:07;;;;;;;6.37;1.30;;;;;;;17.51;24.73;101266.63;4987034;28;20237;-64
2022/05/09 11:37:52;;;;;;;5.63;1.50;;;;;;;17.95;26.27;101252.75;4994487;28;20301;-62
2022/05/09 11:40:37;;;;;;;5.43;1.00;;;;;;;17.71;23.88;101251.78;4988085;28;20224;-60
2022/05/09 11:43:28;;;;;;;4.93;1.10;;;;;;;17.23;24.56;101252.69;4973549;28;20234;-62
2022/05/09 11:46:14;;;;;;;3.40;1.10;;;;;;;17.17;24.45;101254.22;4972525;28;20307;-69
2022/05/09 11:49:05;;;;;;;1.73;0.83;;;;;;;17.38;24.90;101248.31;4975273;28;20227;-62
2022/05/09 11:51:50;;;;;;;5.90;1.10;;;;;;;17.35;24.26;101248.66;4983180;28;20223;-62
2022/05/09 11:54:20;;;;;;;5.33;1.00;;;;;;;17.54;24.84;101250.16;4978409;28;20232;-62
2022/05/09 11:56:49;;;;;;;4.50;1.10;;;;;;;17.66;24.29;101253.31;4979927;28;21051;-62
2022/05/09 11:59:28;;;;;;;5.30;1.20;;;;;;;17.65;25.26;101241.72;4988052;28;20310;-62
2022/05/09 12:02:06;;;;;;;9.37;1.20;;;;;;;18.05;24.90;101239.94;4988567;28;20226;-62